CheckWX is a tool to help pilots better visualize weather data.  It is not intended as a substitute for an official pre-flight weather briefing.

09:08:01 UTC

EHFS METAR
Vlissingen
Vlissingen, The Netherlands
Current

43 mins ago

EHFS 210825Z AUTO 10014KT 9999 NCD 15/08 Q1017 W///H///
Observed
Sep-21 @ 08:25 UTC
Wind
  • 100° at 14 KTS
Visibility
10,000+ meters
Flight Rules
VFR
Cloud Levels
  • Clear skies
Temperature
15°C / 59°F
Dewpoint
C / 46°F
Humidity
63%
Altimeter
30.03" Hg
Pressure
1016.92 hPa
Previous

1 hour ago

EHFS 210755Z AUTO 10013KT 9999 NCD 14/08 Q1018 W///H///
Observed
Sep-21 @ 07:55 UTC
Wind
  • 100° at 13 KTS
Visibility
10,000+ meters
Flight Rules
VFR
Cloud Levels
  • Clear skies
Temperature
14°C / 57°F
Dewpoint
C / 46°F
Humidity
67%
Altimeter
30.06" Hg
Pressure
1017.92 hPa
Previous

2 hours ago

EHFS 210725Z AUTO 10015KT 9999 NCD 14/08 Q1018 W///H///
Observed
Sep-21 @ 07:25 UTC
Wind
  • 100° at 15 KTS
Visibility
10,000+ meters
Flight Rules
VFR
Cloud Levels
  • Clear skies
Temperature
14°C / 57°F
Dewpoint
C / 46°F
Humidity
67%
Altimeter
30.06" Hg
Pressure
1017.92 hPa